Time;durP1;ratioP1;P1;durP2;ratioP2;P2;SDS_P1;SDS_P2;PMS_P1;PMS_P2;Temp;Humidity;BMP_temperature;BMP_pressure;BME280_temperature;BME280_humidity;BME280_pressure;Samples;Min_cycle;Max_cycle;Signal;HPM_P1;HPM_P2
2023/03/25 00:00:29;;;;;;;;;;;;;;;10.88;49.30;100458.50;107663;1254;97822;-63
2023/03/25 00:03:17;;;;;;;;;;;;;;;10.88;49.23;100451.11;107681;1254;113386;-63
2023/03/25 00:05:45;;;;;;;;;;;;;;;10.91;49.14;100448.91;107655;1255;109949;-62
2023/03/25 00:08:14;;;;;;;;;;;;;;;10.91;49.12;100446.70;107696;1254;107247;-63
2023/03/25 00:10:43;;;;;;;;;;;;;;;10.90;49.22;100448.40;107680;1256;97813;-63
2023/03/25 00:13:12;;;;;;;;;;;;;;;10.91;48.77;100447.41;107623;1254;97826;-62
2023/03/25 00:15:45;;;;;;;;;;;;;;;10.87;48.75;100447.26;107670;1254;111140;-63
2023/03/25 00:18:16;;;;;;;;;;;;;;;10.85;48.48;100448.58;107640;1255;108963;-63
2023/03/25 00:20:48;;;;;;;;;;;;;;;10.80;48.78;100447.22;107679;1254;108748;-65
2023/03/25 00:23:17;;;;;;;;;;;;;;;10.75;49.03;100441.93;107603;1253;97834;-63
2023/03/25 00:25:46;;;;;;;;;;;;;;;10.69;49.06;100441.48;107728;1256;97822;-63
2023/03/25 00:28:15;;;;;;;;;;;;;;;10.59;49.19;100435.40;107514;1254;111319;-63
2023/03/25 00:30:44;;;;;;;;;;;;;;;10.53;49.46;100434.85;107714;1255;108334;-63
2023/03/25 00:33:13;;;;;;;;;;;;;;;10.48;49.59;100431.52;107701;1254;107717;-63
2023/03/25 00:35:44;;;;;;;;;;;;;;;10.46;49.68;100426.33;107624;1254;97883;-63
2023/03/25 00:38:13;;;;;;;;;;;;;;;10.44;49.79;100421.33;107686;1254;97844;-63
2023/03/25 00:40:41;;;;;;;;;;;;;;;10.42;49.70;100420.26;107691;1253;111657;-63
2023/03/25 00:43:10;;;;;;;;;;;;;;;10.37;49.85;100415.89;107635;1254;109456;-63
2023/03/25 00:45:38;;;;;;;;;;;;;;;10.32;50.10;100412.57;107656;1254;105987;-63
2023/03/25 00:48:06;;;;;;;;;;;;;;;10.28;49.94;100405.59;107718;1254;97809;-62
2023/03/25 00:50:34;;;;;;;;;;;;;;;10.24;50.24;100402.02;107679;1254;97922;-63
2023/03/25 00:53:02;;;;;;;;;;;;;;;10.21;50.30;100400.39;107693;1254;111738;-61
2023/03/25 00:55:31;;;;;;;;;;;;;;;10.17;50.16;100400.13;107701;1256;109079;-61
2023/03/25 00:58:00;;;;;;;;;;;;;;;10.15;50.69;100400.67;107555;1256;108227;-62
2023/03/25 01:00:28;;;;;;;;;;;;;;;10.12;50.48;100400.30;107666;1255;97794;-63
2023/03/25 01:02:57;;;;;;;;;;;;;;;10.08;50.42;100399.38;107594;1253;97807;-64
2023/03/25 01:05:26;;;;;;;;;;;;;;;10.01;50.63;100401.44;107600;1254;111961;-63
2023/03/25 01:07:54;;;;;;;;;;;;;;;9.99;50.57;100396.27;107648;1255;109675;-63
2023/03/25 01:10:22;;;;;;;;;;;;;;;9.93;51.45;100398.48;107673;1254;108182;-62
2023/03/25 01:12:51;;;;;;;;;;;;;;;9.87;51.61;100401.81;107633;1255;97692;-62
2023/03/25 01:15:19;;;;;;;;;;;;;;;9.87;51.98;100400.95;107637;1254;97794;-62
2023/03/25 01:17:47;;;;;;;;;;;;;;;9.88;52.06;100402.31;107603;1254;112792;-62
2023/03/25 01:20:16;;;;;;;;;;;;;;;9.84;52.54;100396.69;107693;1254;109486;-63
2023/03/25 01:22:45;;;;;;;;;;;;;;;9.83;52.42;100396.80;107672;1254;107636;-64
2023/03/25 01:25:13;;;;;;;;;;;;;;;9.81;52.46;100391.27;107618;1254;97829;-62
2023/03/25 01:27:41;;;;;;;;;;;;;;;9.80;52.85;100390.33;107659;1254;97938;-63
2023/03/25 01:30:10;;;;;;;;;;;;;;;9.78;53.24;100388.88;107604;1253;110769;-63
2023/03/25 01:32:38;;;;;;;;;;;;;;;9.77;52.84;100390.02;107704;1251;108656;-63
2023/03/25 01:35:07;;;;;;;;;;;;;;;9.78;53.14;100388.16;107603;1254;108479;-63
2023/03/25 01:37:37;;;;;;;;;;;;;;;9.78;53.56;100389.75;107627;1254;97825;-62
2023/03/25 01:40:08;;;;;;;;;;;;;;;9.75;53.41;100385.06;107664;1254;98312;-63
2023/03/25 01:42:36;;;;;;;;;;;;;;;9.69;53.28;100382.48;107686;1256;111355;-63
2023/03/25 01:45:15;;;;;;;;;;;;;;;9.63;53.21;100379.65;107636;1253;109881;-63
2023/03/25 01:47:45;;;;;;;;;;;;;;;9.60;53.31;100377.25;107691;1256;108505;-63
2023/03/25 01:50:13;;;;;;;;;;;;;;;9.60;53.25;100373.68;107642;1254;97905;-61
2023/03/25 01:52:44;;;;;;;;;;;;;;;9.61;53.82;100376.45;107706;1252;97710;-61
2023/03/25 01:55:13;;;;;;;;;;;;;;;9.60;53.84;100371.16;107685;1255;110171;-62
2023/03/25 01:57:44;;;;;;;;;;;;;;;9.58;54.20;100365.62;107624;1256;109883;-63
2023/03/25 02:00:14;;;;;;;;;;;;;;;9.55;53.98;100368.90;107533;1256;109017;-63
2023/03/25 02:02:42;;;;;;;;;;;;;;;9.51;54.45;100376.79;108090;1255;97956;-63
2023/03/25 02:05:17;;;;;;;;;;;;;;;9.51;53.99;100376.46;107549;1254;97720;-64
2023/03/25 02:07:47;;;;;;;;;;;;;;;9.51;54.25;100370.89;107562;1254;111744;-62
2023/03/25 02:10:16;;;;;;;;;;;;;;;9.48;54.64;100369.67;107551;1253;109896;-63
2023/03/25 02:12:46;;;;;;;;;;;;;;;9.45;54.49;100374.55;107629;1254;108572;-63
2023/03/25 02:15:16;;;;;;;;;;;;;;;9.43;54.31;100377.67;107689;1256;97727;-62
2023/03/25 02:18:07;;;;;;;;;;;;;;;9.38;54.50;100370.23;107582;1253;98015;-62
2023/03/25 02:20:53;;;;;;;;;;;;;;;9.36;54.88;100363.48;107681;1256;110795;-63
2023/03/25 02:23:27;;;;;;;;;;;;;;;9.30;55.37;100359.47;107615;1254;110422;-62
2023/03/25 02:25:55;;;;;;;;;;;;;;;9.29;55.35;100350.11;107599;1254;107239;-63
2023/03/25 02:28:34;;;;;;;;;;;;;;;9.27;55.30;100346.23;107636;1255;97810;-62
2023/03/25 02:31:17;;;;;;;;;;;;;;;9.23;55.73;100342.20;107682;1254;97821;-63
2023/03/25 02:33:52;;;;;;;;;;;;;;;9.24;55.74;100332.48;107679;1254;111710;-64
2023/03/25 02:36:35;;;;;;;;;;;;;;;9.25;55.69;100329.73;107712;1253;109486;-62
2023/03/25 02:39:09;;;;;;;;;;;;;;;9.23;55.95;100325.98;107616;1256;108403;-62
2023/03/25 02:41:50;;;;;;;;;;;;;;;9.19;56.31;100329.00;107687;1255;97829;-62
2023/03/25 02:44:22;;;;;;;;;;;;;;;9.15;56.44;100329.02;107719;1254;97824;-63
2023/03/25 02:46:55;;;;;;;;;;;;;;;9.13;55.99;100326.19;107680;1254;111792;-61
2023/03/25 02:49:29;;;;;;;;;;;;;;;9.11;55.76;100325.41;107703;1254;110053;-62
2023/03/25 02:52:00;;;;;;;;;;;;;;;9.11;55.89;100320.08;107587;1257;108503;-63
2023/03/25 02:54:32;;;;;;;;;;;;;;;9.11;55.87;100319.52;107574;1256;97796;-63
2023/03/25 02:57:04;;;;;;;;;;;;;;;9.09;56.55;100316.13;107622;1254;97914;-62
2023/03/25 02:59:37;;;;;;;;;;;;;;;9.07;56.43;100313.97;107666;1254;110612;-62
2023/03/25 03:02:07;;;;;;;;;;;;;;;9.07;56.43;100319.13;107637;1254;109529;-63
2023/03/25 03:04:46;;;;;;;;;;;;;;;9.06;56.33;100315.86;107567;1253;108733;-63
2023/03/25 03:07:19;;;;;;;;;;;;;;;9.07;56.33;100311.43;107627;1257;97708;-62
2023/03/25 03:10:18;;;;;;;;;;;;;;;9.09;56.05;100309.52;107734;1257;97812;-63
2023/03/25 03:12:49;;;;;;;;;;;;;;;9.06;56.12;100303.46;107631;1257;111836;-64
2023/03/25 03:15:36;;;;;;;;;;;;;;;9.05;56.40;100301.79;107686;1254;109731;-63
2023/03/25 03:18:14;;;;;;;;;;;;;;;9.06;57.08;100304.95;107675;1256;108475;-63
2023/03/25 03:21:08;;;;;;;;;;;;;;;9.03;57.95;100305.20;107702;1256;97802;-62
2023/03/25 03:23:45;;;;;;;;;;;;;;;9.03;57.77;100306.65;107668;1257;97901;-63
2023/03/25 03:26:28;;;;;;;;;;;;;;;9.04;57.96;100309.40;107665;1256;111362;-62
2023/03/25 03:29:07;;;;;;;;;;;;;;;9.05;57.82;100312.40;107670;1254;109724;-62
2023/03/25 03:31:42;;;;;;;;;;;;;;;9.08;58.02;100312.78;107678;1251;107166;-62
2023/03/25 03:34:43;;;;;;;;;;;;;;;9.14;57.88;100310.51;107605;1251;97809;-62
2023/03/25 03:37:14;;;;;;;;;;;;;;;9.16;57.85;100309.38;107681;1254;97782;-62
2023/03/25 03:39:45;;;;;;;;;;;;;;;9.18;57.86;100307.42;107688;1253;112709;-62
2023/03/25 03:42:23;;;;;;;;;;;;;;;9.19;57.97;100305.36;107620;1254;109000;-63
2023/03/25 03:44:54;;;;;;;;;;;;;;;9.19;58.37;100304.62;107573;1257;108609;-63
2023/03/25 03:47:29;;;;;;;;;;;;;;;9.18;58.43;100311.77;107578;1257;97813;-63
2023/03/25 03:49:59;;;;;;;;;;;;;;;9.19;58.30;100318.58;107709;1254;97963;-63
2023/03/25 03:52:32;;;;;;;;;;;;;;;9.20;58.32;100313.66;107654;1254;113231;-62
2023/03/25 03:55:03;;;;;;;;;;;;;;;9.18;58.30;100313.02;107597;1254;109843;-62
2023/03/25 03:57:44;;;;;;;;;;;;;;;9.18;58.80;100317.87;107578;1254;108126;-63
2023/03/25 04:00:16;;;;;;;;;;;;;;;9.18;58.75;100316.42;107603;1255;98053;-61
2023/03/25 04:02:48;;;;;;;;;;;;;;;9.18;58.86;100311.17;107588;1254;97823;-63
2023/03/25 04:05:18;;;;;;;;;;;;;;;9.16;58.86;100310.15;107603;1255;112188;-63
2023/03/25 04:07:53;;;;;;;;;;;;;;;9.17;58.66;100309.53;107604;1254;110865;-61
2023/03/25 04:10:28;;;;;;;;;;;;;;;9.18;58.54;100309.73;107633;1254;107804;-63
2023/03/25 04:12:59;;;;;;;;;;;;;;;9.20;58.36;100305.10;107609;1254;97829;-63
2023/03/25 04:15:27;;;;;;;;;;;;;;;9.21;58.48;100302.70;107617;1254;97802;-62
2023/03/25 04:17:56;;;;;;;;;;;;;;;9.22;58.42;100302.76;107629;1255;110506;-62
2023/03/25 04:20:28;;;;;;;;;;;;;;;9.20;58.86;100301.85;107592;1253;110067;-61
2023/03/25 04:23:17;;;;;;;;;;;;;;;9.18;58.62;100299.79;107660;1254;107685;-63
2023/03/25 04:25:51;;;;;;;;;;;;;;;9.18;58.66;100299.05;107708;1255;97815;-62
2023/03/25 04:28:22;;;;;;;;;;;;;;;9.19;58.85;100299.69;107624;1254;97888;-62
2023/03/25 04:30:55;;;;;;;;;;;;;;;9.18;58.90;100302.79;107602;1254;111769;-62
2023/03/25 04:33:24;;;;;;;;;;;;;;;9.17;58.84;100308.60;107571;1254;107760;-63
2023/03/25 04:35:52;;;;;;;;;;;;;;;9.17;58.55;100309.14;107541;1254;107622;-62
2023/03/25 04:38:21;;;;;;;;;;;;;;;9.17;58.72;100308.09;107627;1254;98365;-62
2023/03/25 04:40:51;;;;;;;;;;;;;;;9.14;59.17;100306.24;107612;1254;97776;-61
2023/03/25 04:43:19;;;;;;;;;;;;;;;9.13;59.41;100309.14;107579;1254;111234;-63
2023/03/25 04:45:52;;;;;;;;;;;;;;;9.15;59.54;100308.66;107625;1255;109921;-64
2023/03/25 04:48:25;;;;;;;;;;;;;;;9.19;59.50;100313.45;107691;1254;107680;-62
2023/03/25 04:50:54;;;;;;;;;;;;;;;9.25;59.45;100316.30;107621;1254;97797;-63
2023/03/25 04:53:22;;;;;;;;;;;;;;;9.33;59.29;100315.00;107699;1255;97723;-63
2023/03/25 04:55:51;;;;;;;;;;;;;;;9.41;59.31;100316.26;107619;1254;111830;-62
2023/03/25 04:58:20;;;;;;;;;;;;;;;9.47;59.36;100315.45;107695;1254;108736;-62
2023/03/25 05:00:50;;;;;;;;;;;;;;;9.52;59.28;100316.55;107710;1254;107313;-63
2023/03/25 05:03:23;;;;;;;;;;;;;;;9.59;59.59;100313.92;107664;1254;97997;-61
2023/03/25 05:05:52;;;;;;;;;;;;;;;9.67;59.56;100311.05;107739;1254;97815;-63
2023/03/25 05:08:21;;;;;;;;;;;;;;;9.76;59.53;100313.27;107663;1257;111173;-62
2023/03/25 05:10:49;;;;;;;;;;;;;;;9.87;59.81;100315.52;107719;1254;109247;-62
2023/03/25 05:13:18;;;;;;;;;;;;;;;9.98;59.65;100316.79;107630;1256;108633;-63
2023/03/25 05:15:46;;;;;;;;;;;;;;;10.11;59.36;100316.14;107561;1254;98486;-62
2023/03/25 05:18:16;;;;;;;;;;;;;;;10.20;59.35;100315.67;107641;1253;97876;-62
2023/03/25 05:20:45;;;;;;;;;;;;;;;10.32;59.24;100304.63;107724;1251;111771;-63
2023/03/25 05:23:16;;;;;;;;;;;;;;;10.42;59.39;100304.52;107717;1254;108991;-63
2023/03/25 05:25:46;;;;;;;;;;;;;;;10.49;59.45;100302.00;107668;1254;107748;-62
2023/03/25 05:28:15;;;;;;;;;;;;;;;10.58;59.72;100303.66;107653;1254;97834;-63
2023/03/25 05:30:44;;;;;;;;;;;;;;;10.66;59.41;100303.46;107732;1254;97755;-62
2023/03/25 05:33:14;;;;;;;;;;;;;;;10.78;59.57;100302.88;107713;1254;111725;-62
2023/03/25 05:35:43;;;;;;;;;;;;;;;10.83;59.61;100299.10;107707;1253;110124;-63
2023/03/25 05:38:18;;;;;;;;;;;;;;;10.89;59.30;100298.88;107675;1253;107515;-61
2023/03/25 05:40:46;;;;;;;;;;;;;;;10.95;59.28;100299.59;107669;1254;97837;-61
2023/03/25 05:43:15;;;;;;;;;;;;;;;11.00;59.18;100295.30;107671;1254;97944;-63
2023/03/25 05:45:44;;;;;;;;;;;;;;;11.08;59.22;100299.75;107672;1254;112099;-63
2023/03/25 05:48:12;;;;;;;;;;;;;;;11.13;59.28;100303.02;107708;1254;109377;-62
2023/03/25 05:50:41;;;;;;;;;;;;;;;11.17;59.46;100301.05;107697;1254;108141;-62
2023/03/25 05:53:11;;;;;;;;;;;;;;;11.20;59.36;100298.27;107620;1256;97893;-63
2023/03/25 05:55:39;;;;;;;;;;;;;;;11.19;59.06;100295.64;107551;1257;97938;-61
2023/03/25 05:58:08;;;;;;;;;;;;;;;11.20;58.93;100295.35;107664;1254;110886;-63
2023/03/25 06:00:37;;;;;;;;;;;;;;;11.22;58.97;100296.98;107704;1254;109502;-62
2023/03/25 06:03:06;;;;;;;;;;;;;;;11.22;58.79;100298.05;107703;1255;107977;-62
2023/03/25 06:05:40;;;;;;;;;;;;;;;11.21;58.68;100304.23;107693;1254;97815;-64
2023/03/25 06:08:12;;;;;;;;;;;;;;;11.22;58.52;100303.95;107672;1253;97706;-63
2023/03/25 06:10:45;;;;;;;;;;;;;;;11.23;58.24;100303.27;107677;1254;111879;-66
2023/03/25 06:13:32;;;;;;;;;;;;;;;11.25;58.19;100299.31;107609;1254;109205;-62
2023/03/25 06:16:02;;;;;;;;;;;;;;;11.26;58.20;100301.90;107589;1253;106649;-63
2023/03/25 06:18:30;;;;;;;;;;;;;;;11.24;58.53;100297.64;107655;1252;97924;-63
2023/03/25 06:20:59;;;;;;;;;;;;;;;11.23;58.31;100297.42;107691;1253;97717;-65
2023/03/25 06:23:27;;;;;;;;;;;;;;;11.26;58.20;100302.44;107696;1254;111909;-64
2023/03/25 06:25:57;;;;;;;;;;;;;;;11.31;58.21;100303.98;107697;1253;109977;-63
2023/03/25 06:28:28;;;;;;;;;;;;;;;11.35;58.14;100306.48;107672;1253;108653;-63
2023/03/25 06:30:58;;;;;;;;;;;;;;;11.39;58.01;100310.46;107661;1254;97822;-63
2023/03/25 06:33:26;;;;;;;;;;;;;;;11.45;57.97;100310.06;107668;1254;97808;-63
2023/03/25 06:36:11;;;;;;;;;;;;;;;11.56;58.06;100306.30;107633;1256;111318;-63
2023/03/25 06:38:40;;;;;;;;;;;;;;;11.71;58.11;100304.14;107685;1253;110161;-63
2023/03/25 06:41:14;;;;;;;;;;;;;;;11.87;58.09;100302.11;107667;1253;108514;-63
2023/03/25 06:43:42;;;;;;;;;;;;;;;12.05;57.93;100298.41;107641;1254;97841;-65
2023/03/25 06:46:33;;;;;;;;;;;;;;;12.27;57.85;100289.83;107371;1254;97839;-64
2023/03/25 06:49:10;;;;;;;;;;;;;;;12.47;57.79;100288.29;107688;1254;111151;-64
2023/03/25 06:51:40;;;;;;;;;;;;;;;12.65;57.68;100287.91;107658;1254;109312;-64
2023/03/25 06:54:08;;;;;;;;;;;;;;;12.82;57.40;100283.94;107611;1252;107925;-64
2023/03/25 06:56:36;;;;;;;;;;;;;;;12.97;57.03;100278.38;107607;1254;97897;-63
2023/03/25 06:59:04;;;;;;;;;;;;;;;13.08;56.39;100272.52;107541;1257;97877;-64
2023/03/25 07:01:32;;;;;;;;;;;;;;;13.16;56.09;100267.25;107526;1254;111685;-63
2023/03/25 07:04:01;;;;;;;;;;;;;;;13.23;55.78;100266.29;107603;1254;109311;-63
2023/03/25 07:06:30;;;;;;;;;;;;;;;13.34;55.50;100270.50;107690;1254;108631;-64
2023/03/25 07:08:58;;;;;;;;;;;;;;;13.46;55.36;100266.39;107652;1253;97811;-64
2023/03/25 07:11:28;;;;;;;;;;;;;;;13.52;55.12;100259.39;107651;1254;97819;-64
2023/03/25 07:13:56;;;;;;;;;;;;;;;13.58;55.02;100254.37;107611;1253;112111;-62
2023/03/25 07:16:26;;;;;;;;;;;;;;;13.65;54.92;100253.35;107716;1254;108340;-63
2023/03/25 07:18:56;;;;;;;;;;;;;;;13.67;54.87;100256.39;107653;1254;107842;-63
2023/03/25 07:21:25;;;;;;;;;;;;;;;13.67;54.87;100266.77;107638;1253;97840;-63
2023/03/25 07:23:53;;;;;;;;;;;;;;;13.71;54.71;100271.59;107624;1254;97912;-62
2023/03/25 07:26:21;;;;;;;;;;;;;;;13.82;54.66;100266.05;107500;1254;111303;-64
2023/03/25 07:28:50;;;;;;;;;;;;;;;13.93;54.55;100259.96;107521;1254;109446;-63
2023/03/25 07:31:18;;;;;;;;;;;;;;;14.07;54.43;100254.06;107729;1256;107678;-63
2023/03/25 07:33:47;;;;;;;;;;;;;;;14.26;53.98;100237.58;107618;1254;97846;-65
2023/03/25 07:36:15;;;;;;;;;;;;;;;14.47;53.69;100232.50;107637;1253;97851;-64
2023/03/25 07:38:43;;;;;;;;;;;;;;;14.73;53.44;100227.44;107632;1256;111489;-64
2023/03/25 07:41:12;;;;;;;;;;;;;;;15.06;53.14;100220.15;107688;1254;109765;-64
2023/03/25 07:43:48;;;;;;;;;;;;;;;15.30;52.03;100219.55;107670;1253;108543;-63
2023/03/25 07:46:25;;;;;;;;;;;;;;;15.53;51.86;100222.07;107625;1254;97815;-64
2023/03/25 07:48:54;;;;;;;;;;;;;;;15.76;51.14;100221.23;107732;1253;97913;-63
2023/03/25 07:51:23;;;;;;;;;;;;;;;15.95;50.55;100218.73;107686;1254;111384;-63
2023/03/25 07:53:51;;;;;;;;;;;;;;;16.16;50.40;100224.43;107682;1254;110121;-63
2023/03/25 07:56:19;;;;;;;;;;;;;;;16.36;50.45;100230.23;107719;1254;108341;-63
2023/03/25 07:58:48;;;;;;;;;;;;;;;16.52;49.50;100220.54;107583;1254;97906;-64
2023/03/25 08:01:16;;;;;;;;;;;;;;;16.63;49.19;100211.23;107638;1254;97819;-64
2023/03/25 08:03:45;;;;;;;;;;;;;;;16.77;48.98;100203.71;107643;1254;111908;-61
2023/03/25 08:06:13;;;;;;;;;;;;;;;16.90;48.43;100199.36;107725;1254;110440;-63
2023/03/25 08:08:41;;;;;;;;;;;;;;;17.10;48.02;100193.36;107680;1253;107745;-62
2023/03/25 08:11:10;;;;;;;;;;;;;;;17.23;47.61;100186.50;107652;1256;97909;-64
2023/03/25 08:13:38;;;;;;;;;;;;;;;17.29;47.27;100170.91;107703;1252;97905;-63
2023/03/25 08:16:13;;;;;;;;;;;;;;;17.35;47.52;100158.84;107507;1254;112391;-63
2023/03/25 08:18:43;;;;;;;;;;;;;;;17.40;47.21;100146.71;107651;1253;108759;-63
2023/03/25 08:21:12;;;;;;;;;;;;;;;17.52;47.00;100141.41;107648;1254;107651;-64
2023/03/25 08:23:43;;;;;;;;;;;;;;;17.71;46.71;100130.67;107615;1253;97815;-63
2023/03/25 08:26:11;;;;;;;;;;;;;;;17.92;46.57;100121.81;107646;1254;97810;-64
2023/03/25 08:28:40;;;;;;;;;;;;;;;18.10;46.08;100121.16;107727;1254;111814;-63
2023/03/25 08:31:08;;;;;;;;;;;;;;;18.32;45.69;100124.78;107706;1255;108444;-63
2023/03/25 08:33:39;;;;;;;;;;;;;;;18.56;45.24;100122.62;107661;1253;107795;-63
2023/03/25 08:36:12;;;;;;;;;;;;;;;18.76;44.42;100123.04;107716;1254;97831;-63
2023/03/25 08:38:41;;;;;;;;;;;;;;;19.01;44.49;100124.23;107541;1252;97782;-62
2023/03/25 08:41:10;;;;;;;;;;;;;;;19.28;43.69;100125.77;107705;1253;111791;-63
2023/03/25 08:43:38;;;;;;;;;;;;;;;19.61;43.51;100128.11;107726;1256;109499;-63
2023/03/25 08:46:07;;;;;;;;;;;;;;;19.89;43.10;100131.89;107589;1253;108136;-62
2023/03/25 08:48:36;;;;;;;;;;;;;;;19.99;42.47;100130.53;107717;1254;97963;-63
2023/03/25 08:51:05;;;;;;;;;;;;;;;19.96;41.23;100126.55;107587;1253;97719;-63
2023/03/25 08:53:33;;;;;;;;;;;;;;;19.91;41.65;100125.15;107569;1253;112465;-65
2023/03/25 08:56:02;;;;;;;;;;;;;;;19.91;41.32;100115.34;107643;1253;109550;-64
2023/03/25 08:58:33;;;;;;;;;;;;;;;19.90;41.43;100115.61;107631;1254;107002;-63
2023/03/25 09:01:04;;;;;;;;;;;;;;;20.11;42.02;100110.96;107512;1252;97874;-63
2023/03/25 09:03:32;;;;;;;;;;;;;;;20.38;41.81;100106.33;107626;1253;97832;-63
2023/03/25 09:06:04;;;;;;;;;;;;;;;20.68;41.38;100105.67;107675;1254;111599;-63
2023/03/25 09:08:33;;;;;;;;;;;;;;;20.99;38.20;100103.04;107728;1253;110460;-64
2023/03/25 09:11:02;;;;;;;;;;;;;;;21.26;37.23;100097.31;107713;1254;108108;-61
2023/03/25 09:13:30;;;;;;;;;;;;;;;21.55;37.45;100099.39;107663;1251;97800;-63
2023/03/25 09:15:58;;;;;;;;;;;;;;;21.81;35.54;100099.99;107651;1252;97721;-62
2023/03/25 09:18:27;;;;;;;;;;;;;;;21.88;34.63;100108.54;107627;1256;111361;-63
2023/03/25 09:20:58;;;;;;;;;;;;;;;21.90;34.88;100100.14;107621;1254;109982;-62
2023/03/25 09:23:27;;;;;;;;;;;;;;;21.96;34.75;100086.63;107587;1253;108288;-61
2023/03/25 09:25:59;;;;;;;;;;;;;;;22.10;35.20;100084.06;107632;1253;97825;-65
2023/03/25 09:28:28;;;;;;;;;;;;;;;22.34;35.20;100083.69;107624;1252;97704;-63
2023/03/25 09:30:56;;;;;;;;;;;;;;;22.89;34.10;100085.79;107696;1252;111480;-64
2023/03/25 09:33:26;;;;;;;;;;;;;;;23.43;33.13;100083.86;107659;1254;108857;-63
2023/03/25 09:35:54;;;;;;;;;;;;;;;23.94;32.64;100078.95;107719;1253;109625;-63
2023/03/25 09:38:23;;;;;;;;;;;;;;;24.59;32.35;100072.95;107720;1252;97855;-64
2023/03/25 09:40:51;;;;;;;;;;;;;;;25.07;32.10;100067.41;107603;1254;97944;-63
2023/03/25 09:43:38;;;;;;;;;;;;;;;25.43;31.93;100057.27;107629;1254;111263;-62
2023/03/25 09:46:07;;;;;;;;;;;;;;;26.12;31.31;100049.59;107656;1252;109245;-63
2023/03/25 09:48:37;;;;;;;;;;;;;;;26.61;29.90;100040.70;107683;1253;108332;-64
2023/03/25 09:51:15;;;;;;;;;;;;;;;27.09;28.48;100043.18;107646;1253;97806;-63
2023/03/25 09:54:02;;;;;;;;;;;;;;;27.63;27.57;100043.55;107695;1254;97959;-62
2023/03/25 09:56:34;;;;;;;;;;;;;;;28.29;27.28;100039.30;107728;1251;112044;-63
2023/03/25 09:59:12;;;;;;;;;;;;;;;28.80;25.95;100038.37;107674;1251;110052;-63
2023/03/25 10:01:41;;;;;;;;;;;;;;;29.05;25.68;100035.98;107688;1254;109481;-63
2023/03/25 10:04:22;;;;;;;;;;;;;;;29.48;25.41;100029.83;107396;1251;364301;-63
2023/03/25 10:07:14;;;;;;;;;;;;;;;30.11;24.84;100021.02;107663;1252;97697;-64
2023/03/25 10:10:01;;;;;;;;;;;;;;;30.78;23.13;100017.16;107697;1254;111470;-63
2023/03/25 10:12:36;;;;;;;;;;;;;;;31.23;21.84;100015.27;107738;1253;108808;-63
2023/03/25 10:15:23;;;;;;;;;;;;;;;31.54;22.18;100011.55;107679;1252;109354;-63
2023/03/25 10:17:55;;;;;;;;;;;;;;;31.12;21.08;100011.03;107670;1254;97822;-64
2023/03/25 10:20:33;;;;;;;;;;;;;;;30.13;21.95;100004.41;107632;1254;97856;-64
2023/03/25 10:23:16;;;;;;;;;;;;;;;29.31;22.53;99997.89;107662;1252;112341;-64
2023/03/25 10:25:46;;;;;;;;;;;;;;;28.54;23.35;99995.83;107659;1254;109414;-65
2023/03/25 10:28:17;;;;;;;;;;;;;;;28.12;23.37;99990.42;107704;1253;108147;-63
2023/03/25 10:30:48;;;;;;;;;;;;;;;27.67;23.19;99995.66;107643;1254;97847;-62
2023/03/25 10:33:20;;;;;;;;;;;;;;;27.05;23.70;99985.73;107641;1253;97823;-66
2023/03/25 10:35:48;;;;;;;;;;;;;;;26.58;24.16;99980.92;107695;1253;111351;-62
2023/03/25 10:38:17;;;;;;;;;;;;;;;26.32;24.47;99979.47;107688;1252;109927;-62
2023/03/25 10:40:48;;;;;;;;;;;;;;;26.63;24.25;99974.25;107675;1253;108517;-63
2023/03/25 10:43:17;;;;;;;;;;;;;;;27.27;23.99;99977.99;107694;1254;97925;-64
2023/03/25 10:45:46;;;;;;;;;;;;;;;28.06;23.60;99960.05;107725;1254;97711;-63
2023/03/25 10:48:18;;;;;;;;;;;;;;;28.87;23.32;99952.65;107720;1253;112365;-63
2023/03/25 10:50:47;;;;;;;;;;;;;;;29.28;22.44;99951.52;107692;1253;109232;-63
2023/03/25 10:53:23;;;;;;;;;;;;;;;29.06;22.31;99943.28;107687;1254;107661;-64
2023/03/25 10:55:55;;;;;;;;;;;;;;;28.98;21.96;99943.79;107673;1255;97832;-64
2023/03/25 10:58:23;;;;;;;;;;;;;;;29.41;21.78;99937.59;107686;1254;97824;-64
2023/03/25 11:00:51;;;;;;;;;;;;;;;30.07;21.53;99929.96;107632;1253;111306;-64
2023/03/25 11:03:24;;;;;;;;;;;;;;;30.64;20.61;99931.01;107714;1253;109984;-63
2023/03/25 11:05:52;;;;;;;;;;;;;;;30.88;19.74;99933.11;107657;1252;108579;-64
2023/03/25 11:08:22;;;;;;;;;;;;;;;30.57;20.22;99929.39;107631;1254;97820;-62
2023/03/25 11:10:56;;;;;;;;;;;;;;;29.89;20.41;99921.27;107698;1254;97898;-63
2023/03/25 11:13:29;;;;;;;;;;;;;;;29.00;21.30;99927.40;107705;1253;111594;-63
2023/03/25 11:16:00;;;;;;;;;;;;;;;28.45;22.05;99920.02;107679;1253;110086;-65
2023/03/25 11:18:32;;;;;;;;;;;;;;;27.92;22.75;99918.39;107720;1254;107758;-65
2023/03/25 11:21:06;;;;;;;;;;;;;;;27.53;23.13;99921.95;107675;1256;97914;-63
2023/03/25 11:23:36;;;;;;;;;;;;;;;26.93;23.64;99922.73;107704;1254;97825;-63
2023/03/25 11:26:05;;;;;;;;;;;;;;;26.46;24.32;99914.64;107594;1253;111587;-64
2023/03/25 11:28:34;;;;;;;;;;;;;;;26.24;24.86;99910.21;107677;1254;109030;-64
2023/03/25 11:31:11;;;;;;;;;;;;;;;26.18;25.19;99911.80;107677;1254;108197;-65
2023/03/25 11:33:41;;;;;;;;;;;;;;;26.57;25.30;99907.46;107644;1252;97947;-63
2023/03/25 11:36:11;;;;;;;;;;;;;;;27.12;24.82;99906.95;107655;1252;97822;-63
2023/03/25 11:38:39;;;;;;;;;;;;;;;27.47;24.24;99903.86;107710;1254;111261;-63
2023/03/25 11:41:08;;;;;;;;;;;;;;;27.73;23.90;99903.37;107633;1254;109921;-63
2023/03/25 11:43:37;;;;;;;;;;;;;;;27.82;24.07;99900.89;107670;1255;108852;-64
2023/03/25 11:46:13;;;;;;;;;;;;;;;27.63;24.10;99899.17;107632;1254;97900;-64
2023/03/25 11:48:43;;;;;;;;;;;;;;;27.59;24.11;99894.81;107572;1254;97832;-64
2023/03/25 11:51:18;;;;;;;;;;;;;;;27.93;23.96;99883.79;107673;1253;113689;-64
2023/03/25 11:53:49;;;;;;;;;;;;;;;28.30;23.55;99876.09;107663;1254;109641;-64
2023/03/25 11:56:21;;;;;;;;;;;;;;;28.62;23.57;99863.91;107638;1253;107537;-63
2023/03/25 11:58:50;;;;;;;;;;;;;;;29.05;22.70;99855.30;107646;1254;97803;-63
2023/03/25 12:01:21;;;;;;;;;;;;;;;29.43;22.46;99845.96;107687;1253;97752;-66
2023/03/25 12:03:50;;;;;;;;;;;;;;;29.81;21.62;99837.74;107621;1253;111357;-64
2023/03/25 12:06:22;;;;;;;;;;;;;;;30.07;21.25;99832.37;107674;1253;109996;-64
2023/03/25 12:08:52;;;;;;;;;;;;;;;30.20;21.04;99825.39;107633;1253;108741;-64
2023/03/25 12:11:27;;;;;;;;;;;;;;;30.14;20.73;99823.93;107637;1252;97716;-63
2023/03/25 12:14:07;;;;;;;;;;;;;;;29.91;21.19;99824.83;107675;1252;97695;-66
2023/03/25 12:16:55;;;;;;;;;;;;;;;29.54;20.99;99820.98;107685;1253;110780;-63
2023/03/25 12:19:29;;;;;;;;;;;;;;;29.22;21.16;99827.48;107664;1254;109232;-64
2023/03/25 12:22:27;;;;;;;;;;;;;;;29.03;21.07;99825.84;107698;1253;108924;-64
2023/03/25 12:25:14;;;;;;;;;;;;;;;28.71;21.59;99827.20;107151;1253;97828;-64
2023/03/25 12:28:00;;;;;;;;;;;;;;;28.33;22.11;99825.65;107664;1253;97822;-64
2023/03/25 12:30:35;;;;;;;;;;;;;;;28.63;21.56;99819.63;107673;1254;111839;-62
2023/03/25 12:33:05;;;;;;;;;;;;;;;29.24;21.15;99804.94;107676;1254;111331;-63
2023/03/25 12:35:34;;;;;;;;;;;;;;;29.57;20.47;99801.16;107636;1254;108824;-64
2023/03/25 12:38:02;;;;;;;;;;;;;;;29.54;20.42;99802.67;107675;1254;97989;-65
2023/03/25 12:40:38;;;;;;;;;;;;;;;29.31;20.61;99798.15;107656;1253;97992;-62
2023/03/25 12:43:10;;;;;;;;;;;;;;;28.87;21.18;99794.40;107641;1254;111249;-62
2023/03/25 12:45:38;;;;;;;;;;;;;;;29.22;21.34;99793.75;107666;1254;109735;-63
2023/03/25 12:48:15;;;;;;;;;;;;;;;29.86;21.13;99792.09;107675;1253;108554;-61